Time;durP1;ratioP1;P1;durP2;ratioP2;P2;SDS_P1;SDS_P2;PMS_P1;PMS_P2;Temp;Humidity;BMP_temperature;BMP_pressure;BME280_temperature;BME280_humidity;BME280_pressure;Samples;Min_cycle;Max_cycle;Signal;HPM_P1;HPM_P2
2021/04/09 00:01:58;;;;;;;5.83;2.20;;;;;;;0.75;77.75;101342.88;4999177;28;20225;-82
2021/04/09 00:04:25;;;;;;;4.83;2.43;;;;;;;0.70;77.23;101334.22;5006309;28;20235;-82
2021/04/09 00:06:52;;;;;;;3.73;2.10;;;;;;;0.65;77.55;101340.91;5011383;28;20244;-82
2021/04/09 00:09:18;;;;;;;4.80;2.40;;;;;;;0.60;77.73;101339.03;5006487;28;20272;-82
2021/04/09 00:11:44;;;;;;;4.03;2.50;;;;;;;0.54;77.43;101332.06;5012683;28;20190;-81
2021/04/09 00:14:13;;;;;;;4.70;2.37;;;;;;;0.51;77.40;101337.09;5020644;28;20208;-82
2021/04/09 00:16:40;;;;;;;4.60;2.33;;;;;;;0.48;77.12;101329.34;5021019;28;20198;-81
2021/04/09 00:19:07;;;;;;;4.33;2.57;;;;;;;0.42;77.83;101324.03;5022002;28;20198;-81
2021/04/09 00:21:33;;;;;;;3.33;2.70;;;;;;;0.37;77.83;101331.63;5025131;28;20193;-82
2021/04/09 00:23:59;;;;;;;6.93;2.73;;;;;;;0.31;78.55;101324.59;4989650;28;20221;-82
2021/04/09 00:26:26;;;;;;;4.30;2.10;;;;;;;0.27;78.21;101319.38;4985759;28;20264;-82
2021/04/09 00:28:52;;;;;;;3.30;2.20;;;;;;;0.22;78.63;101316.66;5003462;28;20201;-82
2021/04/09 00:31:18;;;;;;;2.90;2.23;;;;;;;0.15;79.02;101317.34;5000869;28;20695;-82
2021/04/09 00:33:45;;;;;;;6.67;2.17;;;;;;;0.09;78.81;101320.59;4988868;28;20236;-82
2021/04/09 00:36:11;;;;;;;5.27;2.77;;;;;;;0.04;78.44;101314.47;4974262;28;20206;-82
2021/04/09 00:38:37;;;;;;;6.50;2.60;;;;;;;0.01;78.62;101319.50;5003363;28;20201;-82
2021/04/09 00:41:04;;;;;;;3.80;2.13;;;;;;;-0.04;78.81;101324.50;4992437;28;20642;-82
2021/04/09 00:43:30;;;;;;;2.90;2.33;;;;;;;-0.08;79.05;101317.56;4971220;28;20200;-82
2021/04/09 00:45:56;;;;;;;3.43;2.30;;;;;;;-0.10;79.62;101315.78;4993767;28;20218;-82
2021/04/09 00:48:22;;;;;;;4.03;2.40;;;;;;;-0.15;79.36;101307.94;5000669;28;20228;-82
2021/04/09 00:50:49;;;;;;;3.43;2.30;;;;;;;-0.18;79.45;101304.44;4991124;28;20734;-82
2021/04/09 00:53:18;;;;;;;4.20;2.33;;;;;;;-0.20;79.49;101305.25;5001019;28;20216;-82
2021/04/09 00:55:45;;;;;;;2.53;2.20;;;;;;;-0.22;79.27;101303.47;4983459;28;20221;-82
2021/04/09 00:58:11;;;;;;;5.20;2.77;;;;;;;-0.27;79.77;101297.34;4999777;28;20200;-82
2021/04/09 01:00:37;;;;;;;4.77;2.67;;;;;;;-0.32;80.03;101297.19;4989867;28;20211;-82
2021/04/09 01:03:04;;;;;;;3.27;2.33;;;;;;;-0.37;79.67;101293.63;4995711;28;20240;-82
2021/04/09 01:05:32;;;;;;;3.70;2.30;;;;;;;-0.42;80.15;101293.53;4950791;28;20252;-82
2021/04/09 01:08:01;;;;;;;2.67;2.20;;;;;;;-0.44;80.13;101290.06;4995047;28;20225;-82
2021/04/09 01:10:28;;;;;;;3.87;2.13;;;;;;;-0.44;80.46;101284.94;5002478;28;20383;-82
2021/04/09 01:12:54;;;;;;;4.70;2.30;;;;;;;-0.48;80.31;101282.22;4983958;28;20332;-82
2021/04/09 01:15:21;;;;;;;3.33;2.23;;;;;;;-0.49;81.05;101280.47;5000692;28;20220;-82
2021/04/09 01:17:55;;;;;;;8.53;2.57;;;;;;;-0.51;80.34;101279.56;4983208;28;20221;-82
2021/04/09 01:20:40;;;;;;;4.47;2.60;;;;;;;-0.52;80.76;101273.56;5000402;28;20229;-82
2021/04/09 01:23:26;;;;;;;3.80;2.43;;;;;;;-0.57;80.88;101278.53;5009068;28;20232;-81
2021/04/09 01:26:33;;;;;;;3.27;2.30;;;;;;;-0.59;81.40;101269.09;4999757;28;20223;-82
2021/04/09 01:29:18;;;;;;;2.53;1.90;;;;;;;-0.64;81.35;101261.25;4984421;28;20890;-82
2021/04/09 01:31:51;;;;;;;4.13;2.40;;;;;;;-0.66;81.80;101259.50;5001218;28;20964;-82
2021/04/09 01:34:19;;;;;;;5.93;2.73;;;;;;;-0.69;81.90;101261.94;5003269;28;20240;-82
2021/04/09 01:36:50;;;;;;;4.77;2.27;;;;;;;-0.70;82.20;101257.63;4987524;28;20295;-82
2021/04/09 01:39:28;;;;;;;3.47;2.00;;;;;;;-0.70;81.76;101258.53;5001757;28;20257;-82
2021/04/09 01:41:55;;;;;;;2.97;2.20;;;;;;;-0.74;81.83;101251.56;5001700;28;20243;-82
2021/04/09 01:44:27;;;;;;;3.10;2.37;;;;;;;-0.73;82.34;101250.75;4987691;28;20216;-82
2021/04/09 01:46:55;;;;;;;3.80;2.30;;;;;;;-0.79;82.18;101240.34;5000297;28;20212;-82
2021/04/09 01:49:23;;;;;;;5.30;2.27;;;;;;;-0.83;82.16;101247.03;5006159;28;20694;-82
2021/04/09 01:51:51;;;;;;;3.27;2.27;;;;;;;-0.86;82.00;101235.81;4990126;28;20213;-82
2021/04/09 01:54:20;;;;;;;5.20;2.50;;;;;;;-0.85;81.82;101237.56;5003165;28;20231;-82
2021/04/09 01:56:47;;;;;;;5.60;2.30;;;;;;;-0.85;82.32;101225.63;5002831;28;20192;-82
2021/04/09 01:59:15;;;;;;;3.50;2.20;;;;;;;-0.87;82.81;101227.28;5002754;28;20232;-82
2021/04/09 02:01:44;;;;;;;3.17;2.17;;;;;;;-0.88;83.77;101214.44;4992913;28;20687;-82
2021/04/09 02:04:12;;;;;;;3.63;2.50;;;;;;;-0.97;82.32;101223.59;4991552;28;20274;-82
2021/04/09 02:06:40;;;;;;;3.10;2.03;;;;;;;-1.00;81.66;101209.84;5001548;28;20490;-82
2021/04/09 02:09:06;;;;;;;3.90;2.37;;;;;;;-1.01;82.38;101205.53;5004112;28;20557;-82
2021/04/09 02:11:33;;;;;;;5.13;2.53;;;;;;;-1.06;82.36;101205.38;5006148;28;20710;-82
2021/04/09 02:14:00;;;;;;;4.63;2.50;;;;;;;-1.06;83.00;101199.41;5009209;28;20252;-82
2021/04/09 02:16:29;;;;;;;2.70;2.13;;;;;;;-1.08;83.55;101188.25;4988962;28;20204;-81
2021/04/09 02:18:56;;;;;;;4.57;2.30;;;;;;;-1.13;82.48;101194.91;5009224;28;20327;-82
2021/04/09 02:21:23;;;;;;;4.17;2.27;;;;;;;-1.16;82.53;101190.56;5005583;28;20902;-82
2021/04/09 02:23:49;;;;;;;3.80;2.63;;;;;;;-1.22;82.64;101193.78;5011004;28;20414;-82
2021/04/09 02:26:15;;;;;;;4.13;2.60;;;;;;;-1.21;82.42;101192.13;4987445;28;20211;-82
2021/04/09 02:28:41;;;;;;;3.60;2.60;;;;;;;-1.25;82.57;101174.91;4999276;28;20205;-82
2021/04/09 02:31:11;;;;;;;4.10;2.70;;;;;;;-1.23;82.65;101174.16;5002340;28;20204;-82
2021/04/09 02:33:38;;;;;;;3.67;2.20;;;;;;;-1.23;82.92;101175.81;5006808;28;20405;-82
2021/04/09 02:36:10;;;;;;;2.83;2.23;;;;;;;-1.27;81.70;101176.56;5006377;28;20208;-82
2021/04/09 02:38:37;;;;;;;3.03;1.97;;;;;;;-1.30;81.15;101174.78;5002700;28;20194;-81
2021/04/09 02:41:04;;;;;;;3.50;2.10;;;;;;;-1.31;81.34;101174.75;5010046;28;20192;-81
2021/04/09 02:43:31;;;;;;;2.23;1.77;;;;;;;-1.30;82.15;101167.13;5008439;28;20254;-81
2021/04/09 02:45:58;;;;;;;3.17;1.93;;;;;;;-1.35;81.43;101171.22;5002475;28;20225;-81
2021/04/09 02:48:26;;;;;;;4.37;1.77;;;;;;;-1.35;81.63;101159.28;4988535;28;20224;-82
2021/04/09 02:50:53;;;;;;;2.77;2.10;;;;;;;-1.33;82.81;101155.09;5002729;28;20304;-82
2021/04/09 02:53:26;;;;;;;3.67;1.90;;;;;;;-1.35;81.36;101158.44;5009015;28;20603;-82
2021/04/09 02:55:54;;;;;;;3.13;2.37;;;;;;;-1.34;80.96;101147.34;5004930;28;20249;-82
2021/04/09 02:58:21;;;;;;;4.20;2.80;;;;;;;-1.28;80.67;101151.81;5000250;28;20573;-82
2021/04/09 03:00:49;;;;;;;5.87;2.53;;;;;;;-1.27;79.88;101154.41;5003160;28;20204;-82
2021/04/09 03:03:17;;;;;;;4.00;2.70;;;;;;;-1.27;80.22;101153.53;4996238;28;20963;-81
2021/04/09 03:05:44;;;;;;;4.57;2.60;;;;;;;-1.29;80.04;101144.97;4989691;28;20480;-81
2021/04/09 03:08:12;;;;;;;6.07;2.70;;;;;;;-1.29;80.08;101145.81;4987568;28;20223;-82
2021/04/09 03:10:39;;;;;;;3.93;2.20;;;;;;;-1.27;79.94;101143.31;4989545;28;20462;-82
2021/04/09 03:13:06;;;;;;;3.73;2.90;;;;;;;-1.30;79.93;101144.09;5003924;28;20201;-82
2021/04/09 03:15:37;;;;;;;3.87;2.33;;;;;;;-1.35;79.79;101146.50;4996229;28;20779;-81
2021/04/09 03:18:05;;;;;;;4.87;2.80;;;;;;;-1.36;80.77;101137.06;5005230;28;20647;-81
2021/04/09 03:20:31;;;;;;;3.43;2.57;;;;;;;-1.35;80.16;101132.84;4990884;28;20208;-81
2021/04/09 03:22:57;;;;;;;5.07;2.37;;;;;;;-1.35;80.13;101128.59;5001946;28;20222;-81
2021/04/09 03:25:24;;;;;;;5.13;2.23;;;;;;;-1.36;80.42;101128.53;4993384;28;20487;-81
2021/04/09 03:27:50;;;;;;;3.47;2.43;;;;;;;-1.38;80.04;101125.06;5003894;28;20796;-81
2021/04/09 03:30:20;;;;;;;3.63;2.50;;;;;;;-1.38;80.02;101130.19;5002840;28;20193;-81
2021/04/09 03:32:47;;;;;;;4.20;2.70;;;;;;;-1.42;80.13;101124.13;4990772;28;20258;-81
2021/04/09 03:35:13;;;;;;;3.43;2.63;;;;;;;-1.46;80.01;101126.50;5004381;28;20222;-82
2021/04/09 03:37:39;;;;;;;6.40;3.33;;;;;;;-1.41;80.04;101120.72;4986892;28;20298;-81
2021/04/09 03:40:06;;;;;;;4.50;2.80;;;;;;;-1.39;79.38;101111.44;4986353;28;20205;-81
2021/04/09 03:42:33;;;;;;;3.87;2.60;;;;;;;-1.42;79.03;101113.03;5006903;28;20447;-81
2021/04/09 03:44:59;;;;;;;5.93;3.63;;;;;;;-1.41;79.28;101112.19;5001510;28;20479;-81
2021/04/09 03:47:26;;;;;;;7.03;4.10;;;;;;;-1.42;79.23;101103.66;5002443;28;20534;-81
2021/04/09 03:49:52;;;;;;;7.20;3.97;;;;;;;-1.39;79.42;101111.44;5004819;28;20257;-81
2021/04/09 03:52:18;;;;;;;6.33;2.87;;;;;;;-1.44;79.10;101105.28;4997434;28;20883;-81
2021/04/09 03:54:44;;;;;;;3.20;2.30;;;;;;;-1.46;79.09;101104.38;4990633;28;20263;-81
2021/04/09 03:57:10;;;;;;;4.13;2.77;;;;;;;-1.45;79.02;101100.13;4975544;28;20484;-81
2021/04/09 03:59:36;;;;;;;3.60;2.90;;;;;;;-1.43;78.84;101101.91;5004019;28;20506;-81
2021/04/09 04:02:02;;;;;;;4.97;2.70;;;;;;;-1.43;80.41;101085.69;4999306;28;20470;-81
2021/04/09 04:04:29;;;;;;;4.47;2.53;;;;;;;-1.45;79.30;101097.56;4985425;28;20217;-81
2021/04/09 04:06:55;;;;;;;3.80;2.77;;;;;;;-1.45;79.65;101092.47;4998992;28;20785;-81
2021/04/09 04:09:21;;;;;;;6.17;2.67;;;;;;;-1.42;79.11;101088.31;4993032;28;20205;-81
2021/04/09 04:11:47;;;;;;;3.13;2.40;;;;;;;-1.36;78.98;101080.78;4998876;28;20197;-81
2021/04/09 04:14:13;;;;;;;3.07;2.57;;;;;;;-1.31;78.58;101086.06;5004078;28;20747;-81
2021/04/09 04:16:39;;;;;;;4.43;2.50;;;;;;;-1.27;78.52;101087.00;4987033;28;20283;-81
2021/04/09 04:19:06;;;;;;;4.70;3.10;;;;;;;-1.28;78.64;101078.47;5006437;28;20235;-81
2021/04/09 04:21:33;;;;;;;6.33;3.03;;;;;;;-1.28;78.71;101073.38;5006526;28;20220;-81
2021/04/09 04:23:59;;;;;;;5.07;3.13;;;;;;;-1.25;78.64;101072.56;5007921;28;20380;-81
2021/04/09 04:26:26;;;;;;;5.20;3.40;;;;;;;-1.20;78.27;101071.88;5022079;28;20207;-82
2021/04/09 04:28:52;;;;;;;5.67;3.17;;;;;;;-1.12;78.28;101077.22;5014452;28;20723;-81
2021/04/09 04:31:18;;;;;;;7.30;3.30;;;;;;;-1.10;77.83;101070.47;5023148;28;20230;-80
2021/04/09 04:33:44;;;;;;;5.50;3.07;;;;;;;-1.06;77.64;101072.28;5006545;28;20443;-80
2021/04/09 04:36:10;;;;;;;4.90;3.30;;;;;;;-1.02;77.69;101070.66;5021662;28;20268;-81
2021/04/09 04:38:37;;;;;;;5.37;3.13;;;;;;;-1.03;77.70;101061.28;5020891;28;20187;-81
2021/04/09 04:41:03;;;;;;;6.63;3.77;;;;;;;-1.02;77.75;101068.09;5008673;28;20464;-81
2021/04/09 04:43:30;;;;;;;6.20;3.83;;;;;;;-1.02;77.84;101058.75;5001059;28;20200;-80
2021/04/09 04:45:56;;;;;;;4.63;3.27;;;;;;;-1.02;78.42;101060.44;5002114;28;20209;-81
2021/04/09 04:48:22;;;;;;;5.30;3.43;;;;;;;-1.00;77.76;101051.97;4999327;28;20234;-81
2021/04/09 04:50:48;;;;;;;5.70;2.93;;;;;;;-0.92;77.81;101057.31;5001017;28;20192;-81
2021/04/09 04:53:14;;;;;;;4.57;3.50;;;;;;;-0.87;78.16;101055.75;4985733;28;20205;-80
2021/04/09 04:55:41;;;;;;;5.87;3.40;;;;;;;-0.82;77.82;101061.00;5002084;28;20488;-81
2021/04/09 04:58:07;;;;;;;6.40;3.50;;;;;;;-0.84;77.52;101048.16;5003042;28;20231;-81
2021/04/09 05:00:33;;;;;;;4.20;3.23;;;;;;;-0.78;77.98;101048.31;5000935;28;20196;-81
2021/04/09 05:02:59;;;;;;;5.93;3.90;;;;;;;-0.74;77.61;101056.06;5001388;28;20587;-81
2021/04/09 05:05:25;;;;;;;6.53;3.63;;;;;;;-0.71;77.23;101062.16;5001633;28;20493;-81
2021/04/09 05:07:51;;;;;;;5.23;4.03;;;;;;;-0.69;77.47;101054.50;4999354;28;20239;-81
2021/04/09 05:10:17;;;;;;;5.07;3.83;;;;;;;-0.66;76.77;101055.44;4993116;28;20287;-81
2021/04/09 05:12:44;;;;;;;5.70;3.83;;;;;;;-0.62;76.93;101053.84;4990934;28;20428;-81
2021/04/09 05:15:11;;;;;;;6.90;3.90;;;;;;;-0.57;76.44;101055.69;4993544;28;20244;-81
2021/04/09 05:17:37;;;;;;;4.83;3.53;;;;;;;-0.54;77.15;101051.50;5002384;28;20225;-81
2021/04/09 05:20:04;;;;;;;5.07;3.73;;;;;;;-0.48;76.73;101049.94;5003382;28;20205;-81
2021/04/09 05:22:30;;;;;;;5.93;4.17;;;;;;;-0.41;76.20;101048.41;5000563;28;20247;-80
2021/04/09 05:24:56;;;;;;;6.87;4.43;;;;;;;-0.38;76.72;101058.75;5001648;28;20648;-81
2021/04/09 05:27:23;;;;;;;6.50;4.27;;;;;;;-0.28;76.11;101047.91;5000812;28;20213;-81
2021/04/09 05:29:50;;;;;;;6.23;3.90;;;;;;;-0.23;75.75;101040.31;5001910;28;20276;-81
2021/04/09 05:32:16;;;;;;;8.03;4.90;;;;;;;-0.10;75.18;101042.34;5004132;28;20212;-81
2021/04/09 05:34:42;;;;;;;9.90;5.00;;;;;;;-0.02;75.50;101038.28;4980322;28;20216;-82
2021/04/09 05:37:08;;;;;;;11.00;5.60;;;;;;;0.06;74.96;101043.56;4993995;28;20261;-82
2021/04/09 05:39:36;;;;;;;11.67;6.27;;;;;;;0.17;74.26;101052.38;4980026;28;20476;-82
2021/04/09 05:42:02;;;;;;;12.80;6.10;;;;;;;0.28;73.70;101050.09;5001980;28;20220;-82
2021/04/09 05:44:30;;;;;;;47.13;18.07;;;;;;;0.41;73.06;101055.50;4983062;28;20233;-82
2021/04/09 05:46:57;;;;;;;10.07;5.57;;;;;;;0.48;73.12;101053.06;5001443;28;20221;-81
2021/04/09 05:49:23;;;;;;;8.43;4.87;;;;;;;0.60;73.05;101059.28;4992169;28;20531;-81
2021/04/09 05:51:49;;;;;;;10.60;5.37;;;;;;;0.70;72.05;101054.41;5001344;28;20495;-82
2021/04/09 05:54:15;;;;;;;10.97;5.83;;;;;;;0.72;72.38;101057.00;5007399;28;20224;-82
2021/04/09 05:56:41;;;;;;;13.87;6.83;;;;;;;0.83;71.95;101049.53;5003887;28;20230;-82
2021/04/09 05:59:07;;;;;;;10.53;5.57;;;;;;;0.96;71.61;101059.19;5002503;28;20256;-82
2021/04/09 06:01:33;;;;;;;10.73;5.83;;;;;;;1.09;71.11;101055.16;4977106;28;20259;-81
2021/04/09 06:04:00;;;;;;;12.93;6.47;;;;;;;1.21;70.19;101057.97;4999658;28;20250;-82
2021/04/09 06:06:26;;;;;;;17.03;8.03;;;;;;;1.33;70.42;101053.06;4986432;28;20687;-82
2021/04/09 06:08:52;;;;;;;10.63;5.60;;;;;;;1.43;69.61;101054.13;4987943;28;20253;-82
2021/04/09 06:11:18;;;;;;;9.27;5.00;;;;;;;1.54;69.61;101049.16;4998844;28;20966;-82
2021/04/09 06:13:44;;;;;;;10.47;6.90;;;;;;;1.65;69.80;101039.94;4987867;28;20233;-82
2021/04/09 06:16:10;;;;;;;17.23;7.97;;;;;;;1.77;69.40;101034.13;5006285;28;20528;-82
2021/04/09 06:18:36;;;;;;;10.27;6.57;;;;;;;1.88;68.62;101030.03;5002981;28;20236;-82
2021/04/09 06:21:04;;;;;;;9.97;6.60;;;;;;;1.98;69.01;101027.59;5001454;28;20206;-82
2021/04/09 06:23:30;;;;;;;9.60;6.07;;;;;;;2.09;68.21;101028.63;5005248;28;20604;-82
2021/04/09 06:25:56;;;;;;;8.83;5.53;;;;;;;2.21;68.34;101027.94;4999736;28;20219;-82
2021/04/09 06:28:22;;;;;;;12.33;6.87;;;;;;;2.31;67.65;101031.53;4979950;28;20290;-82
2021/04/09 06:30:48;;;;;;;10.23;7.27;;;;;;;2.36;68.04;101025.59;5002374;28;20215;-82
2021/04/09 06:33:14;;;;;;;19.87;9.77;;;;;;;2.48;66.85;101030.06;4992632;28;20202;-82
2021/04/09 06:35:41;;;;;;;23.53;10.53;;;;;;;2.57;67.02;101031.84;5005947;28;20725;-82
2021/04/09 06:38:07;;;;;;;13.00;7.10;;;;;;;2.70;66.06;101028.59;5006634;28;20658;-82
2021/04/09 06:40:34;;;;;;;20.60;7.57;;;;;;;2.82;65.89;101035.63;5002263;28;20899;-82
2021/04/09 06:43:00;;;;;;;8.83;5.17;;;;;;;2.97;66.35;101022.06;5011144;28;20569;-82
2021/04/09 06:45:27;;;;;;;13.93;6.80;;;;;;;3.14;66.32;101023.09;5000578;28;20231;-82
2021/04/09 06:47:53;;;;;;;22.60;9.07;;;;;;;3.33;66.35;101031.03;5007278;28;21075;-82
2021/04/09 06:50:19;;;;;;;17.17;7.40;;;;;;;3.53;65.28;101026.06;5009017;28;21148;-82
2021/04/09 06:52:45;;;;;;;36.47;14.77;;;;;;;3.70;65.05;101027.09;4995039;28;20600;-82
2021/04/09 06:55:14;;;;;;;20.17;9.93;;;;;;;3.84;64.51;101021.19;5010041;28;20224;-82
2021/04/09 06:57:41;;;;;;;17.13;8.20;;;;;;;4.04;64.16;101024.75;5008917;28;20197;-82
2021/04/09 07:00:09;;;;;;;12.93;6.17;;;;;;;4.17;63.34;101025.72;5009622;28;20199;-82
2021/04/09 07:02:36;;;;;;;18.50;8.00;;;;;;;4.27;63.13;101012.00;5005027;28;20205;-82
2021/04/09 07:05:03;;;;;;;15.83;7.20;;;;;;;4.39;63.76;101016.38;4990109;28;20220;-83
2021/04/09 07:07:29;;;;;;;9.00;5.30;;;;;;;4.46;62.72;101015.56;5002918;28;20221;-82
2021/04/09 07:09:55;;;;;;;19.00;10.03;;;;;;;4.53;62.53;101019.03;5008715;28;20671;-83
2021/04/09 07:12:24;;;;;;;14.53;7.90;;;;;;;4.61;62.29;101011.31;5011572;28;20209;-82
2021/04/09 07:14:52;;;;;;;8.03;4.80;;;;;;;4.74;61.73;101013.97;4992622;28;20271;-83
2021/04/09 07:17:32;;;;;;;6.33;4.40;;;;;;;4.96;59.79;101011.47;5000039;28;20189;-84
2021/04/09 07:20:11;;;;;;;6.23;4.73;;;;;;;5.13;59.54;100996.84;5005618;28;20213;-84
2021/04/09 07:22:39;;;;;;;6.73;4.43;;;;;;;5.27;59.59;100996.88;4982448;28;20723;-84
2021/04/09 07:25:08;;;;;;;6.67;4.23;;;;;;;5.37;57.78;100999.50;5007363;28;20224;-84
2021/04/09 07:27:36;;;;;;;6.57;3.83;;;;;;;5.44;57.94;100991.75;5002418;28;20216;-85
2021/04/09 07:30:03;;;;;;;7.43;4.67;;;;;;;5.50;58.82;100984.00;5009977;28;20261;-84
2021/04/09 07:32:35;;;;;;;7.90;4.77;;;;;;;5.65;58.37;100996.06;5007109;28;20255;-84
2021/04/09 07:35:05;;;;;;;7.97;4.50;;;;;;;5.76;57.20;100997.78;5007714;28;20661;-84
2021/04/09 07:37:32;;;;;;;5.80;4.20;;;;;;;5.86;57.96;100991.75;5005436;28;20192;-85
2021/04/09 07:40:01;;;;;;;6.93;4.83;;;;;;;5.97;57.98;100986.59;4989483;28;20227;-84
2021/04/09 07:42:36;;;;;;;9.00;4.20;;;;;;;6.03;56.71;100997.81;5004108;28;20209;-84
2021/04/09 07:45:08;;;;;;;6.40;4.17;;;;;;;6.18;57.00;100986.53;4997668;28;20220;-84
2021/04/09 07:47:34;;;;;;;6.20;4.83;;;;;;;6.39;56.99;100985.63;5007217;28;20536;-84
2021/04/09 07:50:06;;;;;;;12.57;8.00;;;;;;;6.54;55.55;100982.09;5005928;28;20993;-84
2021/04/09 07:52:44;;;;;;;12.10;7.60;;;;;;;6.61;56.56;100985.53;5003955;28;20204;-84
2021/04/09 07:55:16;;;;;;;6.83;4.50;;;;;;;6.66;55.24;100985.53;5006569;28;20231;-84
2021/04/09 07:57:43;;;;;;;8.77;4.67;;;;;;;6.68;55.91;100989.81;5002595;28;20193;-84
2021/04/09 08:00:20;;;;;;;7.33;5.03;;;;;;;6.64;55.84;100982.94;5004914;28;20207;-84
2021/04/09 08:02:47;;;;;;;7.73;4.83;;;;;;;6.62;56.33;100988.13;4975039;28;21134;-85
2021/04/09 08:05:15;;;;;;;6.63;4.50;;;;;;;6.73;55.71;100992.41;5009170;28;20229;-85
2021/04/09 08:07:42;;;;;;;11.27;5.30;;;;;;;6.76;54.90;100987.22;5005873;28;20219;-85
2021/04/09 08:10:09;;;;;;;6.83;4.30;;;;;;;6.88;55.27;100989.75;5010127;28;20255;-85
2021/04/09 08:12:37;;;;;;;5.87;4.60;;;;;;;7.07;55.18;100989.63;5006595;28;20214;-85
2021/04/09 08:15:16;;;;;;;11.13;5.07;;;;;;;7.18;54.23;100987.84;5008046;28;20212;-85
2021/04/09 08:17:43;;;;;;;6.07;4.80;;;;;;;7.34;53.96;100981.69;4997445;28;20252;-85
2021/04/09 08:20:11;;;;;;;6.60;5.20;;;;;;;7.58;53.40;100980.66;5005185;28;20287;-85
2021/04/09 08:22:38;;;;;;;7.30;4.80;;;;;;;7.71;53.21;100985.75;5006866;28;20587;-85
2021/04/09 08:25:05;;;;;;;7.37;4.40;;;;;;;7.73;53.63;100971.84;5005997;28;20218;-85
2021/04/09 08:27:32;;;;;;;7.47;5.03;;;;;;;7.67;53.22;100973.63;5006849;28;20593;-85
2021/04/09 08:30:00;;;;;;;7.43;4.40;;;;;;;7.67;52.56;100979.72;5005721;28;20898;-85
2021/04/09 08:32:27;;;;;;;7.67;4.73;;;;;;;7.73;52.10;100960.63;4986507;28;20205;-85
2021/04/09 08:34:54;;;;;;;6.43;4.50;;;;;;;7.77;52.66;100959.72;4996755;28;20226;-85
2021/04/09 08:37:21;;;;;;;6.73;4.63;;;;;;;7.92;53.46;100956.13;5017350;28;20198;-85
2021/04/09 08:39:47;;;;;;;8.53;4.80;;;;;;;8.03;52.87;100948.22;5011574;28;20212;-85
2021/04/09 08:42:15;;;;;;;7.03;4.97;;;;;;;8.15;52.87;100950.69;5020831;28;20205;-85
2021/04/09 08:44:43;;;;;;;8.53;4.43;;;;;;;8.25;53.67;100954.03;5017288;28;20211;-85
2021/04/09 08:47:09;;;;;;;6.83;4.87;;;;;;;8.35;53.09;100950.44;5025830;28;20315;-85
2021/04/09 08:49:36;;;;;;;6.47;4.57;;;;;;;8.34;52.88;100944.41;5024252;28;20199;-85
2021/04/09 08:52:05;;;;;;;8.57;5.93;;;;;;;8.37;52.20;100951.28;4998599;28;20226;-85
2021/04/09 08:54:32;;;;;;;7.63;4.53;;;;;;;8.26;52.30;100933.22;4996598;28;20250;-85
2021/04/09 08:56:58;;;;;;;7.60;5.17;;;;;;;8.27;52.57;100940.16;4995478;28;20206;-84
2021/04/09 08:59:41;;;;;;;7.23;4.57;;;;;;;8.25;52.05;100944.50;4983318;28;20202;-84
2021/04/09 09:02:15;;;;;;;9.80;5.30;;;;;;;8.32;51.66;100930.56;4986160;28;20687;-84
2021/04/09 09:04:58;;;;;;;7.93;4.87;;;;;;;8.46;52.67;100925.25;5004529;28;20446;-84
2021/04/09 09:07:59;;;;;;;9.37;5.10;;;;;;;8.61;51.63;100918.97;5001881;28;20247;-84
2021/04/09 09:10:53;;;;;;;6.27;4.17;;;;;;;8.84;51.93;100925.59;5004656;28;20228;-84
2021/04/09 09:13:27;;;;;;;5.07;4.53;;;;;;;8.98;49.82;100934.06;4986977;28;20674;-84
2021/04/09 09:15:55;;;;;;;5.87;4.37;;;;;;;8.98;49.60;100913.25;5004227;28;20224;-84
2021/04/09 09:18:40;;;;;;;7.93;5.07;;;;;;;9.13;50.38;100908.69;5002663;28;20194;-84
2021/04/09 09:21:10;;;;;;;6.30;4.97;;;;;;;9.16;50.02;100904.31;5006879;28;20207;-84
2021/04/09 09:23:43;;;;;;;6.03;4.10;;;;;;;9.37;51.65;100897.03;5005775;28;20658;-84
2021/04/09 09:26:20;;;;;;;6.47;4.73;;;;;;;9.44;51.06;100899.50;4996515;28;20200;-84
2021/04/09 09:28:47;;;;;;;6.10;4.83;;;;;;;9.50;50.64;100897.69;5000423;28;20281;-83
2021/04/09 09:31:30;;;;;;;7.40;4.47;;;;;;;9.61;49.98;100894.00;4995327;28;20235;-83
2021/04/09 09:34:42;;;;;;;7.80;4.23;;;;;;;9.70;49.55;100887.78;4996791;28;20213;-83
2021/04/09 09:37:17;;;;;;;4.90;3.77;;;;;;;9.88;49.21;100904.81;4986671;28;20211;-83
2021/04/09 09:39:48;;;;;;;6.27;3.80;;;;;;;9.87;47.76;100900.50;5000882;28;20311;-83
2021/04/09 09:42:43;;;;;;;6.33;4.00;;;;;;;9.78;47.60;100898.03;5002755;28;20686;-83
2021/04/09 09:45:11;;;;;;;6.97;4.60;;;;;;;9.86;48.75;100881.38;5004619;28;20243;-84
2021/04/09 09:47:41;;;;;;;7.90;4.87;;;;;;;9.99;47.97;100882.03;4980642;28;20228;-83
2021/04/09 09:50:29;;;;;;;5.70;3.43;;;;;;;10.07;48.95;100881.88;5005959;28;20329;-83
2021/04/09 09:52:58;;;;;;;6.63;3.90;;;;;;;10.08;47.29;100894.03;4993899;28;20658;-83
2021/04/09 09:55:27;;;;;;;6.87;3.97;;;;;;;10.03;47.38;100883.69;4983044;28;20439;-84
2021/04/09 09:57:55;;;;;;;5.23;3.90;;;;;;;10.10;47.62;100888.78;5003011;28;20312;-84
2021/04/09 10:00:28;;;;;;;6.00;4.20;;;;;;;10.18;47.64;100879.03;4998414;28;20229;-84
2021/04/09 10:03:18;;;;;;;5.63;4.10;;;;;;;10.21;48.08;100874.63;4975720;28;20768;-84
2021/04/09 10:05:46;;;;;;;4.77;3.43;;;;;;;10.29;47.40;100871.88;4992192;28;20221;-84
2021/04/09 10:08:13;;;;;;;7.57;4.00;;;;;;;10.12;46.69;100881.78;5000961;28;20577;-84
2021/04/09 10:10:41;;;;;;;4.80;3.40;;;;;;;10.13;45.67;100889.59;5003009;28;20231;-84
2021/04/09 10:13:20;;;;;;;6.00;3.70;;;;;;;10.28;46.44;100872.75;5008137;28;20192;-84
2021/04/09 10:15:47;;;;;;;4.37;3.50;;;;;;;10.45;46.64;100869.84;5005149;28;21056;-84
2021/04/09 10:18:13;;;;;;;6.27;3.60;;;;;;;10.46;47.10;100874.13;5010667;28;20196;-84
2021/04/09 10:20:40;;;;;;;6.43;4.10;;;;;;;10.46;45.86;100857.66;5000280;28;20643;-84
2021/04/09 10:23:06;;;;;;;6.10;3.53;;;;;;;10.42;46.38;100865.53;5002765;28;20244;-83
2021/04/09 10:25:34;;;;;;;4.73;3.40;;;;;;;10.34;46.20;100850.94;4999147;28;20228;-83
2021/04/09 10:28:00;;;;;;;5.87;3.33;;;;;;;10.22;45.56;100871.16;5001644;28;20209;-84
2021/04/09 10:30:29;;;;;;;5.83;3.60;;;;;;;10.22;46.60;100852.06;4995253;28;20903;-83
2021/04/09 10:32:55;;;;;;;5.73;3.40;;;;;;;10.42;46.73;100852.50;5005857;28;20261;-83
2021/04/09 10:35:22;;;;;;;5.07;3.70;;;;;;;10.47;45.66;100851.56;5001231;28;20760;-84
2021/04/09 10:37:48;;;;;;;5.57;3.70;;;;;;;10.55;45.75;100847.91;5002613;28;20207;-84
2021/04/09 10:40:15;;;;;;;6.10;3.53;;;;;;;10.69;46.85;100834.50;4997232;28;20242;-84
2021/04/09 10:42:41;;;;;;;5.30;3.50;;;;;;;11.00;46.17;100833.78;5000676;28;20213;-84
2021/04/09 10:45:19;;;;;;;6.90;4.00;;;;;;;11.02;45.48;100837.22;4984932;28;20307;-84
2021/04/09 10:47:46;;;;;;;6.40;3.70;;;;;;;10.94;45.31;100840.03;4988776;28;20237;-84
2021/04/09 10:50:13;;;;;;;6.20;3.73;;;;;;;11.01;45.95;100829.44;4998469;28;20212;-85
2021/04/09 10:52:39;;;;;;;5.77;3.93;;;;;;;11.08;44.48;100830.97;4998440;28;20196;-84
2021/04/09 10:55:06;;;;;;;5.37;3.50;;;;;;;11.05;44.99;100825.88;4998033;28;20226;-84
2021/04/09 10:57:34;;;;;;;6.23;3.97;;;;;;;11.20;45.69;100809.78;4997008;28;20201;-85
2021/04/09 11:00:02;;;;;;;6.90;4.03;;;;;;;11.32;46.50;100808.63;4999560;28;20538;-85
2021/04/09 11:02:29;;;;;;;4.67;3.40;;;;;;;11.53;46.78;100805.44;4998500;28;20224;-85
2021/04/09 11:04:57;;;;;;;6.17;3.83;;;;;;;11.62;45.44;100806.09;4988804;28;20234;-85
2021/04/09 11:07:42;;;;;;;7.23;3.40;;;;;;;11.71;45.68;100787.56;4981133;28;20238;-85
2021/04/09 11:10:13;;;;;;;4.93;3.40;;;;;;;11.91;45.95;100785.25;5002362;28;20636;-85
2021/04/09 11:12:45;;;;;;;4.73;3.43;;;;;;;12.05;46.54;100784.00;4994046;28;20299;-85
2021/04/09 11:15:14;;;;;;;6.40;3.70;;;;;;;11.98;44.68;100791.16;4990231;28;20567;-85
2021/04/09 11:17:52;;;;;;;4.47;3.40;;;;;;;12.11;45.72;100778.59;4999858;28;20886;-85
2021/04/09 11:20:25;;;;;;;6.23;4.33;;;;;;;12.15;43.72;100789.81;4991262;28;20328;-85
2021/04/09 11:23:02;;;;;;;5.40;3.47;;;;;;;12.25;46.68;100770.34;4991098;28;20703;-85
2021/04/09 11:25:33;;;;;;;5.70;3.57;;;;;;;12.34;43.77;100769.19;4994053;28;20225;-85
2021/04/09 11:27:59;;;;;;;6.80;4.07;;;;;;;12.55;45.05;100765.06;4996262;28;20213;-85
2021/04/09 11:30:30;;;;;;;5.57;3.90;;;;;;;12.60;44.27;100771.84;4981956;28;20468;-85
2021/04/09 11:32:57;;;;;;;4.90;3.50;;;;;;;12.71;43.34;100754.94;4978712;28;20204;-85
2021/04/09 11:35:25;;;;;;;3.90;3.10;;;;;;;12.81;44.75;100753.75;4997268;28;20238;-85